METAR Data
IDs: Format: Raw Decoded Include TAF

Data at: 2116 UTC 06 Dec 2019

KMKS 062055Z AUTO 00000KT 10SM -DZ SCT050 SCT075 BKN090 14/13 A3015 RMK AO2 P0006
KMKS 062035Z AUTO 00000KT 10SM RA SCT039 BKN049 OVC080 14/13 A3017 RMK AO2 P0006
KMKS 062015Z AUTO 00000KT 3SM +RA SCT037 BKN049 OVC060 15/13 A3018 RMK AO2 P0004
KMKS 061955Z AUTO 33003KT 2 1/2SM +RA SCT020 BKN048 OVC080 16/13 A3017 RMK AO2 VIS 3/4V5 P0006
KMKS 061935Z AUTO 22005KT 7SM SCT050 BKN085 OVC120 20/10 A3015 RMK AO2
KMKS 061915Z AUTO 20005KT 10SM BKN050 BKN060 OVC110 21/10 A3015 RMK AO2
KMKS 061855Z AUTO 24008KT 10SM OVC050 20/09 A3016 RMK AO2
KMKS 061835Z AUTO 24007KT 7SM BKN050 OVC060 20/09 A3016 RMK AO2
KMKS 061815Z AUTO 18007KT 10SM OVC055 21/09 A3016 RMK AO2
KMKS 061755Z AUTO 21006KT 7SM SCT055 20/09 A3017 RMK AO2
KMKS 061735Z AUTO 20009G14KT 150V220 10SM SCT049 BKN055 21/09 A3016 RMK AO2
KMKS 061715Z AUTO 18005KT 10SM SCT049 BKN055 19/08 A3018 RMK AO2
KMKS 061655Z AUTO 21005KT 7SM SCT055 20/08 A3019 RMK AO2
KMKS 061635Z AUTO 15005KT 10SM CLR 19/08 A3021 RMK AO2
KMKS 061615Z AUTO 15005KT 10SM CLR 18/07 A3022 RMK AO2
KMKS 061555Z AUTO 16005KT 10SM CLR 17/07 A3023 RMK AO2
KMKS 061535Z AUTO 12003KT 10SM CLR 17/06 A3024 RMK AO2
KMKS 061515Z AUTO 00000KT 7SM CLR 15/06 A3025 RMK AO2
KMKS 061455Z AUTO 00000KT 7SM CLR 14/06 A3025 RMK AO2
KMKS 061435Z AUTO 00000KT 7SM CLR 12/06 A3025 RMK AO2
KMKS 061415Z AUTO 00000KT 7SM CLR 10/07 A3024 RMK AO2
KMKS 061355Z AUTO 00000KT 7SM CLR 07/07 A3023 RMK AO2
KMKS 061335Z AUTO 00000KT 10SM CLR 05/05 A3024 RMK AO2
KMKS 061315Z AUTO 00000KT 7SM CLR 03/03 A3024 RMK AO2
KMKS 061255Z AUTO 00000KT 5SM BR CLR 02/02 A3025 RMK AO2
KMKS 061235Z AUTO 00000KT 7SM CLR 01/01 A3025 RMK AO2
KMKS 061215Z AUTO 00000KT 7SM CLR 01/01 A3025 RMK AO2
KMKS 061155Z AUTO 00000KT 10SM CLR 01/01 A3025 RMK AO2
KMKS 061135Z AUTO 00000KT 7SM CLR 01/01 A3025 RMK AO2
KMKS 061115Z AUTO 00000KT 7SM CLR 01/01 A3025 RMK AO2
KMKS 061055Z AUTO 00000KT 7SM CLR 01/01 A3024 RMK AO2
KMKS 061035Z AUTO 00000KT 10SM CLR 01/01 A3023 RMK AO2
KMKS 061015Z AUTO 00000KT 7SM CLR 01/01 A3023 RMK AO2
KMKS 060955Z AUTO 00000KT 7SM CLR 01/01 A3023 RMK AO2
KMKS 060935Z AUTO 00000KT 7SM CLR 01/01 A3023 RMK AO2
KMKS 060915Z AUTO 00000KT 7SM CLR 01/01 A3024 RMK AO2
KMKS 060855Z AUTO 00000KT 7SM CLR 01/01 A3023 RMK AO2
KMKS 060835Z AUTO 00000KT 7SM CLR 01/01 A3023 RMK AO2
KMKS 060815Z AUTO 00000KT 10SM CLR 01/01 A3023 RMK AO2
KMKS 060755Z AUTO 00000KT 10SM CLR 01/01 A3022 RMK AO2
KMKS 060735Z AUTO 00000KT 7SM CLR 01/01 A3022 RMK AO2
KMKS 060715Z AUTO 00000KT 7SM CLR 01/01 A3022 RMK AO2
KMKS 060655Z AUTO 00000KT 7SM CLR 01/01 A3023 RMK AO2
KMKS 060635Z AUTO 00000KT 7SM CLR 01/01 A3023 RMK AO2
KMKS 060615Z AUTO 00000KT 7SM CLR 01/01 A3023 RMK AO2
KMKS 060555Z AUTO 00000KT 10SM CLR 01/01 A3023 RMK AO2
KMKS 060535Z AUTO 00000KT 10SM CLR 02/01 A3024 RMK AO2
KMKS 060515Z AUTO 00000KT 7SM CLR 02/02 A3024 RMK AO2
KMKS 060455Z AUTO 00000KT 10SM CLR 02/02 A3024 RMK AO2
KMKS 060435Z AUTO 00000KT 7SM CLR 02/02 A3024 RMK AO2
KMKS 060415Z AUTO 00000KT 7SM CLR 02/02 A3023 RMK AO2
KMKS 060355Z AUTO 00000KT 7SM CLR 02/02 A3022 RMK AO2
KMKS 060335Z AUTO 00000KT 10SM CLR 02/02 A3022 RMK AO2
KMKS 060315Z AUTO 00000KT 10SM CLR 02/02 A3021 RMK AO2
KMKS 060255Z AUTO 00000KT 10SM CLR 03/02 A3021 RMK AO2
KMKS 060235Z AUTO 00000KT 10SM CLR 03/02 A3021 RMK AO2
KMKS 060215Z AUTO 00000KT 10SM CLR 03/02 A3021 RMK AO2
KMKS 060155Z AUTO 00000KT 7SM CLR 03/02 A3021 RMK AO2
KMKS 060135Z AUTO 00000KT 7SM CLR 03/02 A3020 RMK AO2
KMKS 060115Z AUTO 00000KT 7SM CLR 04/02 A3019 RMK AO2
KMKS 060055Z AUTO 00000KT 10SM CLR 05/03 A3019 RMK AO2
KMKS 060035Z AUTO 00000KT 10SM CLR 05/03 A3018 RMK AO2
KMKS 060015Z AUTO 00000KT 10SM CLR 05/03 A3017 RMK AO2
KMKS 052355Z AUTO 00000KT 10SM CLR 06/03 A3017 RMK AO2
KMKS 052335Z AUTO 00000KT 10SM CLR 06/02 A3016 RMK AO2
KMKS 052315Z AUTO 00000KT 7SM CLR 07/03 A3016 RMK AO2
KMKS 052255Z AUTO 00000KT 7SM CLR 07/03 A3015 RMK AO2
KMKS 052235Z AUTO 00000KT 10SM CLR 08/03 A3013 RMK AO2
KMKS 052215Z AUTO 00000KT 10SM CLR 10/03 A3013 RMK AO2
KMKS 052155Z AUTO 00000KT 7SM CLR 12/02 A3012 RMK AO2
KMKS 052135Z AUTO 00000KT 7SM CLR 15/M01 A3012 RMK AO2
KMKS 052115Z AUTO 00000KT 5SM HZ CLR 16/M02 A3011 RMK AO2
KMKS 052055Z AUTO 00000KT 7SM CLR 16/M03 A3011 RMK AO2
KMKS 052035Z AUTO 00000KT 7SM CLR 17/M03 A3009 RMK AO2
KMKS 052015Z AUTO 36003KT 7SM CLR 17/M03 A3009 RMK AO2
KMKS 051955Z AUTO 36003KT 10SM CLR 17/M03 A3009 RMK AO2
KMKS 051935Z AUTO 36005KT 10SM CLR 17/M03 A3008 RMK AO2
KMKS 051915Z AUTO 34003KT 10SM CLR 17/M02 A3008 RMK AO2
KMKS 051855Z AUTO 00000KT 10SM CLR 17/00 A3008 RMK AO2
KMKS 051835Z AUTO 04003KT 7SM CLR 16/M01 A3009 RMK AO2
KMKS 051815Z AUTO 00000KT 7SM CLR 16/M01 A3009 RMK AO2
KMKS 051755Z AUTO 34003KT 10SM CLR 16/M01 A3009 RMK AO2
KMKS 051735Z AUTO 01003KT 7SM CLR 15/00 A3010 RMK AO2
KMKS 051715Z AUTO 00000KT 7SM CLR 15/00 A3011 RMK AO2
KMKS 051655Z AUTO 35003KT 10SM CLR 15/00 A3011 RMK AO2
KMKS 051635Z AUTO 02003KT 7SM CLR 14/01 A3011 RMK AO2
KMKS 051615Z AUTO 36006KT 7SM CLR 13/00 A3012 RMK AO2
KMKS 051555Z AUTO 01004KT 10SM CLR 13/00 A3012 RMK AO2
KMKS 051535Z AUTO 36005KT 7SM CLR 13/00 A3012 RMK AO2
KMKS 051515Z AUTO 36003KT 7SM CLR 11/02 A3011 RMK AO2
KMKS 051455Z AUTO 36004KT 7SM CLR 11/02 A3011 RMK AO2
KMKS 051435Z AUTO 01006KT 7SM CLR 11/01 A3010 RMK AO2
KMKS 051415Z AUTO 00000KT 7SM CLR 10/02 A3009 RMK AO2
KMKS 051355Z AUTO 35003KT 7SM CLR 08/02 A3007 RMK AO2
KMKS 051335Z AUTO 00000KT 7SM CLR 06/02 A3006 RMK AO2
KMKS 051315Z AUTO 00000KT 7SM CLR 05/02 A3005 RMK AO2
KMKS 051255Z AUTO 00000KT 7SM CLR 03/01 A3005 RMK AO2
KMKS 051235Z AUTO 00000KT 7SM CLR 03/01 A3004 RMK AO2
KMKS 051215Z AUTO 00000KT 10SM CLR 03/01 A3002 RMK AO2
KMKS 051155Z AUTO 00000KT 10SM CLR 04/01 A3002 RMK AO2
KMKS 051135Z AUTO 00000KT 10SM CLR 04/01 A3001 RMK AO2
KMKS 051115Z AUTO 00000KT 7SM CLR 05/01 A3000 RMK AO2
KMKS 051055Z AUTO 00000KT 7SM CLR 06/01 A2998 RMK AO2
KMKS 051035Z AUTO 00000KT 7SM CLR 06/01 A2997 RMK AO2
KMKS 051015Z AUTO 00000KT 10SM CLR 07/01 A2996 RMK AO2
KMKS 050955Z AUTO 00000KT 10SM CLR 07/01 A2995 RMK AO2
KMKS 050935Z AUTO 00000KT 10SM CLR 07/01 A2994 RMK AO2